createdAt,value
2016-12-18T00:00:04.183Z,1036.7
2016-12-18T00:01:07.132Z,1036.7
2016-12-18T00:02:10.585Z,1036.7
2016-12-18T00:03:13.532Z,1036.7
2016-12-18T00:04:16.616Z,1036.8
2016-12-18T00:05:20.061Z,1036.7
2016-12-18T00:06:23.006Z,1036.7
2016-12-18T00:07:26.455Z,1036.7
2016-12-18T00:08:29.401Z,1036.7
2016-12-18T00:10:35.761Z,1036.7
2016-12-18T00:11:39.201Z,1036.7
2016-12-18T00:12:42.151Z,1036.7
2016-12-18T00:13:45.595Z,1036.6
2016-12-18T00:14:48.549Z,1036.6
2016-12-18T00:15:51.998Z,1036.6
2016-12-18T00:16:54.942Z,1036.6
2016-12-18T00:17:58.388Z,1036.6
2016-12-18T00:19:01.328Z,1036.6
2016-12-18T00:20:04.675Z,1036.7
2016-12-18T00:22:11.030Z,1036.6
2016-12-18T00:23:13.975Z,1036.6
2016-12-18T00:24:17.424Z,1036.6
2016-12-18T00:25:20.364Z,1036.6
2016-12-18T00:26:23.813Z,1036.6
2016-12-18T00:27:26.787Z,1036.6
2016-12-18T00:28:30.235Z,1036.7
2016-12-18T00:29:33.177Z,1036.7
2016-12-18T00:30:36.621Z,1036.7
2016-12-18T00:31:39.571Z,1036.7
2016-12-18T00:32:42.512Z,1036.7
2016-12-18T00:33:45.957Z,1036.8
2016-12-18T00:34:48.902Z,1036.7
2016-12-18T00:35:52.347Z,1036.7
2016-12-18T00:36:55.296Z,1036.7
2016-12-18T00:37:58.768Z,1036.7
2016-12-18T00:39:01.717Z,1036.7
2016-12-18T00:40:05.162Z,1036.7
2016-12-18T00:41:08.114Z,1036.7
2016-12-18T00:42:11.560Z,1036.6
2016-12-18T00:43:14.642Z,1036.7
2016-12-18T00:44:17.591Z,1036.7
2016-12-18T00:45:21.041Z,1036.7
2016-12-18T00:46:23.979Z,1036.7
2016-12-18T00:47:27.466Z,1036.7
2016-12-18T00:48:30.413Z,1036.7
2016-12-18T00:49:33.642Z,1036.7
2016-12-18T00:50:37.090Z,1036.7
2016-12-18T00:51:40.032Z,1036.7
2016-12-18T00:52:43.474Z,1036.7
2016-12-18T00:53:46.413Z,1036.7
2016-12-18T00:55:52.775Z,1036.7
2016-12-18T00:56:56.219Z,1036.7
2016-12-18T00:57:59.159Z,1036.7
2016-12-18T00:59:02.605Z,1036.7
2016-12-18T01:00:05.554Z,1036.6
2016-12-18T01:01:09.010Z,1036.7
2016-12-18T01:02:11.955Z,1036.7
2016-12-18T01:03:15.404Z,1036.7
2016-12-18T01:04:18.344Z,1036.6
2016-12-18T01:05:21.790Z,1036.7
2016-12-18T01:07:28.151Z,1036.6
2016-12-18T01:08:31.096Z,1036.6
2016-12-18T01:09:34.537Z,1036.7
2016-12-18T01:10:37.481Z,1036.8
2016-12-18T01:11:40.427Z,1036.7
2016-12-18T01:12:43.875Z,1036.8
2016-12-18T01:13:46.821Z,1036.7
2016-12-18T01:14:50.280Z,1036.8
2016-12-18T01:15:53.227Z,1036.8
2016-12-18T01:16:56.675Z,1036.7
2016-12-18T01:17:59.656Z,1036.8
2016-12-18T01:19:03.138Z,1036.8
2016-12-18T01:20:06.084Z,1036.8
2016-12-18T01:21:09.526Z,1036.8
2016-12-18T01:22:12.468Z,1036.8
2016-12-18T01:23:15.921Z,1036.8
2016-12-18T01:24:18.865Z,1036.8
2016-12-18T01:25:22.314Z,1036.8
2016-12-18T01:26:25.255Z,1036.8
2016-12-18T01:27:28.703Z,1036.7
2016-12-18T01:28:31.648Z,1036.8
2016-12-18T01:29:35.094Z,1036.7
2016-12-18T01:30:38.039Z,1036.7
2016-12-18T01:31:41.483Z,1036.8
2016-12-18T01:32:44.428Z,1036.7
2016-12-18T01:33:47.370Z,1036.8
2016-12-18T01:34:50.818Z,1036.7
2016-12-18T01:35:53.763Z,1036.7
2016-12-18T01:36:57.276Z,1036.7
2016-12-18T01:38:00.226Z,1036.7
2016-12-18T01:39:03.673Z,1036.6
2016-12-18T01:40:06.619Z,1036.7
2016-12-18T01:41:10.067Z,1036.6
2016-12-18T01:42:13.012Z,1036.7
2016-12-18T01:43:16.457Z,1036.7
2016-12-18T01:44:19.398Z,1036.6
2016-12-18T01:45:22.845Z,1036.7
2016-12-18T01:46:25.787Z,1036.7
2016-12-18T01:47:29.231Z,1036.7
2016-12-18T01:48:32.173Z,1036.7
2016-12-18T01:49:35.617Z,1036.7
2016-12-18T01:50:38.563Z,1036.7
2016-12-18T01:51:42.007Z,1036.7
2016-12-18T01:52:44.949Z,1036.7
2016-12-18T01:53:48.398Z,1036.8
2016-12-18T01:54:51.342Z,1036.7
2016-12-18T01:55:54.791Z,1036.7
2016-12-18T01:56:57.739Z,1036.7
2016-12-18T01:58:01.188Z,1036.7
2016-12-18T01:59:04.133Z,1036.7
2016-12-18T02:00:07.082Z,1036.6
2016-12-18T02:01:10.530Z,1036.7
2016-12-18T02:02:13.468Z,1036.7
2016-12-18T02:03:16.920Z,1036.6
2016-12-18T02:04:19.866Z,1036.7
2016-12-18T02:05:23.314Z,1036.6
2016-12-18T02:06:26.271Z,1036.6
2016-12-18T02:07:29.717Z,1036.6
2016-12-18T02:08:32.665Z,1036.6
2016-12-18T02:09:36.117Z,1036.5
2016-12-18T02:10:39.059Z,1036.6
2016-12-18T02:11:42.506Z,1036.6
2016-12-18T02:12:45.454Z,1036.6
2016-12-18T02:13:48.896Z,1036.6
2016-12-18T02:14:51.838Z,1036.5
2016-12-18T02:15:55.286Z,1036.5
2016-12-18T02:16:58.240Z,1036.5
2016-12-18T02:18:01.684Z,1036.5
2016-12-18T02:19:04.628Z,1036.4
2016-12-18T02:20:08.075Z,1036.5
2016-12-18T02:21:11.022Z,1036.5
2016-12-18T02:22:14.104Z,1036.4
2016-12-18T02:24:20.456Z,1036.4
2016-12-18T02:25:23.902Z,1036.4
2016-12-18T02:26:26.855Z,1036.3
2016-12-18T02:27:30.300Z,1036.4
2016-12-18T02:28:33.244Z,1036.3
2016-12-18T02:29:36.689Z,1036.3
2016-12-18T02:30:39.634Z,1036.3
2016-12-18T02:31:43.079Z,1036.3
2016-12-18T02:32:46.028Z,1036.3
2016-12-18T02:33:49.468Z,1036.3
2016-12-18T02:34:52.408Z,1036.2
2016-12-18T02:35:55.858Z,1036.2
2016-12-18T02:36:58.798Z,1036.2
2016-12-18T02:38:02.243Z,1036.3
2016-12-18T02:39:05.187Z,1036.3
2016-12-18T02:40:08.700Z,1036.3
2016-12-18T02:41:11.647Z,1036.3
2016-12-18T02:42:15.090Z,1036.3
2016-12-18T02:43:18.032Z,1036.3
2016-12-18T02:44:21.473Z,1036.3
2016-12-18T02:45:24.425Z,1036.2
2016-12-18T02:46:27.873Z,1036.2
2016-12-18T02:47:30.826Z,1036.2
2016-12-18T02:48:33.836Z,1036.2
2016-12-18T02:49:37.281Z,1036.2
2016-12-18T02:51:43.779Z,1036.1
2016-12-18T02:52:46.858Z,1036.1
2016-12-18T02:53:49.801Z,1036.1
2016-12-18T02:54:53.251Z,1036
2016-12-18T02:55:56.205Z,1036.1
2016-12-18T02:56:59.648Z,1036
2016-12-18T02:58:02.594Z,1035.9
2016-12-18T02:59:06.042Z,1036
2016-12-18T03:00:08.984Z,1035.9
2016-12-18T03:01:12.434Z,1035.8
2016-12-18T03:02:15.378Z,1035.7
2016-12-18T03:03:18.824Z,1035.6
2016-12-18T03:04:21.763Z,1035.6
2016-12-18T03:05:25.248Z,1035.6
2016-12-18T03:06:28.188Z,1035.6
2016-12-18T03:07:31.632Z,1035.6
2016-12-18T03:08:34.574Z,1035.6
2016-12-18T03:09:38.014Z,1035.6
2016-12-18T03:10:40.956Z,1035.7
2016-12-18T03:11:44.400Z,1035.7
2016-12-18T03:12:47.342Z,1035.8
2016-12-18T03:13:50.801Z,1035.8
2016-12-18T03:14:53.743Z,1035.9
2016-12-18T03:15:57.193Z,1035.9
2016-12-18T03:17:00.137Z,1036
2016-12-18T03:18:03.581Z,1036
2016-12-18T03:19:06.521Z,1036
2016-12-18T03:20:09.967Z,1036.1
2016-12-18T03:21:12.908Z,1036.2
2016-12-18T03:22:15.857Z,1036
2016-12-18T03:23:19.305Z,1036
2016-12-18T03:23:49.537Z,1036
2016-12-18T03:24:22.283Z,1036
2016-12-18T03:25:25.727Z,1035.9
2016-12-18T03:26:28.667Z,1035.8
2016-12-18T03:27:32.113Z,1035.7
2016-12-18T03:28:35.055Z,1035.7
2016-12-18T03:29:38.503Z,1035.8
2016-12-18T03:30:41.445Z,1035.8
2016-12-18T03:31:44.888Z,1035.8
2016-12-18T03:32:47.830Z,1035.9
2016-12-18T03:33:51.274Z,1035.9
2016-12-18T03:34:54.224Z,1035.9
2016-12-18T03:35:57.733Z,1035.9
2016-12-18T03:37:00.673Z,1035.9
2016-12-18T03:38:04.122Z,1035.8
2016-12-18T03:39:07.063Z,1035.8
2016-12-18T03:40:10.511Z,1035.8
2016-12-18T03:41:13.453Z,1035.8
2016-12-18T03:42:16.898Z,1035.8
2016-12-18T03:43:19.838Z,1035.8
2016-12-18T03:44:23.287Z,1035.8
2016-12-18T03:45:26.232Z,1035.8
2016-12-18T03:46:29.716Z,1035.9
2016-12-18T03:47:32.653Z,1035.9
2016-12-18T03:48:36.100Z,1035.9
2016-12-18T03:49:39.065Z,1035.9
2016-12-18T03:50:42.515Z,1035.9
2016-12-18T03:51:45.457Z,1035.9
2016-12-18T03:52:48.415Z,1036
2016-12-18T03:53:51.861Z,1035.9
2016-12-18T03:54:54.802Z,1035.9
2016-12-18T03:55:58.249Z,1035.9
2016-12-18T03:57:01.187Z,1035.9
2016-12-18T03:58:04.623Z,1035.8
2016-12-18T03:59:07.560Z,1035.9
2016-12-18T04:00:11.001Z,1035.9
2016-12-18T04:01:13.944Z,1035.9
2016-12-18T04:02:17.387Z,1036
2016-12-18T04:03:20.324Z,1036
2016-12-18T04:04:23.763Z,1036
2016-12-18T04:05:27.200Z,1036
2016-12-18T04:06:30.352Z,1036
2016-12-18T04:07:33.288Z,1036
2016-12-18T04:08:36.728Z,1036
2016-12-18T04:09:39.670Z,1036.1
2016-12-18T04:10:43.109Z,1036
2016-12-18T04:11:46.181Z,1036
2016-12-18T04:12:49.120Z,1036.1
2016-12-18T04:13:52.561Z,1036
2016-12-18T04:14:55.499Z,1036
2016-12-18T04:15:58.938Z,1036
2016-12-18T04:17:01.878Z,1036
2016-12-18T04:18:05.325Z,1036
2016-12-18T04:19:08.267Z,1036
2016-12-18T04:20:11.845Z,1036
2016-12-18T04:21:14.784Z,1036
2016-12-18T04:22:18.228Z,1035.9
2016-12-18T04:23:21.165Z,1035.9
2016-12-18T04:24:24.584Z,1035.9
2016-12-18T04:25:27.519Z,1035.8
2016-12-18T04:26:30.962Z,1035.8
2016-12-18T04:27:33.901Z,1035.8
2016-12-18T04:28:37.341Z,1035.8
2016-12-18T04:29:40.277Z,1035.8
2016-12-18T04:31:46.627Z,1035.7
2016-12-18T04:32:50.071Z,1035.7
2016-12-18T04:33:53.012Z,1035.7
2016-12-18T04:34:56.453Z,1035.7
2016-12-18T04:35:59.390Z,1035.7
2016-12-18T04:37:02.838Z,1035.7
2016-12-18T04:38:05.776Z,1035.7
2016-12-18T04:39:09.213Z,1035.7
2016-12-18T04:40:12.149Z,1035.6
2016-12-18T04:41:15.591Z,1035.7
2016-12-18T04:42:18.530Z,1035.6
2016-12-18T04:43:21.967Z,1035.6
2016-12-18T04:44:24.904Z,1035.6
2016-12-18T04:45:28.349Z,1035.5
2016-12-18T04:46:31.286Z,1035.5
2016-12-18T04:47:34.722Z,1035.4
2016-12-18T04:48:37.660Z,1035.4
2016-12-18T04:49:41.128Z,1035.4
2016-12-18T04:50:44.071Z,1035.3
2016-12-18T04:51:47.515Z,1035.2
2016-12-18T04:52:50.456Z,1035.1
2016-12-18T04:53:53.902Z,1035.1
2016-12-18T04:54:56.849Z,1035.1
2016-12-18T04:56:00.321Z,1035.1
2016-12-18T04:57:03.261Z,1035.1
2016-12-18T04:58:06.703Z,1035.2
2016-12-18T04:59:09.643Z,1035.2
2016-12-18T05:00:13.084Z,1035.3
2016-12-18T05:01:16.021Z,1035.3
2016-12-18T05:02:19.461Z,1035.3
2016-12-18T05:03:22.434Z,1035.3
2016-12-18T05:04:25.878Z,1035.3
2016-12-18T05:05:28.815Z,1035.3
2016-12-18T05:06:32.252Z,1035.3
2016-12-18T05:07:35.191Z,1035.3
2016-12-18T05:08:38.637Z,1035.3
2016-12-18T05:09:41.577Z,1035.3
2016-12-18T05:10:45.020Z,1035.3
2016-12-18T05:11:47.963Z,1035.3
2016-12-18T05:12:51.401Z,1035.3
2016-12-18T05:13:54.342Z,1035.4
2016-12-18T05:14:57.787Z,1035.4
2016-12-18T05:16:00.731Z,1035.3
2016-12-18T05:17:04.172Z,1035.3
2016-12-18T05:18:07.112Z,1035.1
2016-12-18T05:19:10.554Z,1034.9
2016-12-18T05:20:13.494Z,1034.9
2016-12-18T05:21:16.930Z,1035
2016-12-18T05:22:19.869Z,1035
2016-12-18T05:23:23.311Z,1035
2016-12-18T05:24:26.249Z,1035
2016-12-18T05:25:29.689Z,1035
2016-12-18T05:26:32.631Z,1035
2016-12-18T05:27:36.077Z,1035
2016-12-18T05:28:39.015Z,1035
2016-12-18T05:29:42.462Z,1035
2016-12-18T05:30:45.397Z,1035
2016-12-18T05:31:48.837Z,1035
2016-12-18T05:32:51.775Z,1035
2016-12-18T05:33:55.223Z,1035
2016-12-18T05:34:58.166Z,1034.9
2016-12-18T05:36:01.608Z,1034.8
2016-12-18T05:37:04.545Z,1034.9
2016-12-18T05:38:07.993Z,1034.9
2016-12-18T05:39:10.932Z,1034.9
2016-12-18T05:41:17.280Z,1034.7
2016-12-18T05:42:20.726Z,1034.6
2016-12-18T05:43:23.670Z,1034.7
2016-12-18T05:44:27.111Z,1034.7
2016-12-18T05:45:30.055Z,1034.7
2016-12-18T05:46:33.496Z,1034.7
2016-12-18T05:47:36.433Z,1034.7
2016-12-18T05:48:39.868Z,1034.7
2016-12-18T05:49:42.951Z,1034.7
2016-12-18T05:50:45.888Z,1034.6
2016-12-18T05:51:49.326Z,1034.6
2016-12-18T05:52:52.764Z,1034.7
2016-12-18T05:53:55.764Z,1034.7
2016-12-18T05:54:58.740Z,1034.7
2016-12-18T05:56:02.177Z,1034.7
2016-12-18T05:57:05.120Z,1034.7
2016-12-18T05:58:08.557Z,1034.6
2016-12-18T05:59:11.498Z,1034.6
2016-12-18T06:00:14.939Z,1034.6
2016-12-18T06:01:17.877Z,1034.6
2016-12-18T06:02:21.319Z,1034.6
2016-12-18T06:03:24.257Z,1034.5
2016-12-18T06:04:27.701Z,1034.4
2016-12-18T06:05:30.635Z,1034.4
2016-12-18T06:06:34.111Z,1034.5
2016-12-18T06:07:37.044Z,1034.4
2016-12-18T06:08:40.486Z,1034.4
2016-12-18T06:09:43.421Z,1034.4
2016-12-18T06:10:46.861Z,1034.2
2016-12-18T06:11:49.863Z,1034.2
2016-12-18T06:12:53.304Z,1034.4
2016-12-18T06:13:56.244Z,1034.5
2016-12-18T06:14:59.806Z,1034.5
2016-12-18T06:16:02.747Z,1034.6
2016-12-18T06:17:06.191Z,1034.5
2016-12-18T06:18:09.127Z,1034.5
2016-12-18T06:20:15.472Z,1034.5
2016-12-18T06:21:18.921Z,1034.5
2016-12-18T06:22:21.866Z,1034.4
2016-12-18T06:23:25.310Z,1034.4
2016-12-18T06:24:28.247Z,1034.4
2016-12-18T06:26:34.600Z,1034.4
2016-12-18T06:27:38.039Z,1034.5
2016-12-18T06:28:40.977Z,1034.5
2016-12-18T06:29:44.415Z,1034.5
2016-12-18T06:30:47.350Z,1034.5
2016-12-18T06:31:50.791Z,1034.5
2016-12-18T06:32:53.728Z,1034.5
2016-12-18T06:33:57.182Z,1034.6
2016-12-18T06:35:00.189Z,1034.6
2016-12-18T06:36:03.633Z,1034.5
2016-12-18T06:37:06.572Z,1034.6
2016-12-18T06:38:10.011Z,1034.6
2016-12-18T06:39:13.008Z,1034.6
2016-12-18T06:40:16.455Z,1034.6
2016-12-18T06:41:19.394Z,1034.6
2016-12-18T06:42:22.839Z,1034.6
2016-12-18T06:43:25.663Z,1034.5
2016-12-18T06:44:29.108Z,1034.4
2016-12-18T06:45:32.058Z,1034.4
2016-12-18T06:47:38.909Z,1034.2
2016-12-18T06:48:41.848Z,1034.2
2016-12-18T06:49:45.293Z,1034.2
2016-12-18T06:50:48.262Z,1034.2
2016-12-18T06:51:51.702Z,1034.2
2016-12-18T06:52:54.639Z,1034.2
2016-12-18T06:53:58.088Z,1034.2
2016-12-18T06:55:01.028Z,1034.2
2016-12-18T06:56:04.478Z,1034.4
2016-12-18T06:57:07.418Z,1034.4
2016-12-18T06:58:10.856Z,1034.5
2016-12-18T06:59:13.796Z,1034.5
2016-12-18T07:00:17.243Z,1034.5
2016-12-18T07:01:20.183Z,1034.5
2016-12-18T07:02:23.651Z,1034.5
2016-12-18T07:03:26.587Z,1034.6
2016-12-18T07:04:30.027Z,1034.6
2016-12-18T07:05:32.964Z,1034.6
2016-12-18T07:06:36.405Z,1034.6
2016-12-18T07:07:39.350Z,1034.5
2016-12-18T07:08:42.790Z,1034.4
2016-12-18T07:09:45.723Z,1034.2
2016-12-18T07:10:49.159Z,1034.4
2016-12-18T07:12:55.508Z,1034.5
2016-12-18T07:13:58.444Z,1034.6
2016-12-18T07:15:01.886Z,1034.6
2016-12-18T07:16:04.826Z,1034.7
2016-12-18T07:17:08.265Z,1034.6
2016-12-18T07:18:11.202Z,1034.6
2016-12-18T07:19:14.647Z,1034.5
2016-12-18T07:20:17.583Z,1034.6
2016-12-18T07:21:21.162Z,1034.6
2016-12-18T07:22:24.103Z,1034.6
2016-12-18T07:23:27.546Z,1034.5
2016-12-18T07:24:30.546Z,1034.5
2016-12-18T07:25:33.985Z,1034.5
2016-12-18T07:27:40.329Z,1034.4
2016-12-18T07:28:43.278Z,1034.4
2016-12-18T07:29:46.712Z,1034.5
2016-12-18T07:30:49.656Z,1034.6
2016-12-18T07:31:53.101Z,1034.5
2016-12-18T07:32:56.039Z,1034.5
2016-12-18T07:33:59.484Z,1034.4
2016-12-18T07:35:02.424Z,1034.4
2016-12-18T07:36:05.865Z,1034.2
2016-12-18T07:37:08.808Z,1034.4
2016-12-18T07:38:12.249Z,1034.4
2016-12-18T07:39:15.189Z,1034.4
2016-12-18T07:40:18.629Z,1034.4
2016-12-18T07:41:21.571Z,1034.4
2016-12-18T07:42:25.043Z,1034.2
2016-12-18T07:43:27.983Z,1034.2
2016-12-18T07:44:31.423Z,1034.2
2016-12-18T07:45:34.359Z,1034.2
2016-12-18T07:46:37.803Z,1034.4
2016-12-18T07:47:40.744Z,1034.2
2016-12-18T07:48:44.188Z,1034.2
2016-12-18T07:49:47.125Z,1034.2
2016-12-18T07:50:50.563Z,1034.2
2016-12-18T07:51:53.502Z,1034.1
2016-12-18T07:52:56.941Z,1034.1
2016-12-18T07:53:59.881Z,1034.1
2016-12-18T07:55:03.321Z,1034.1
2016-12-18T07:56:06.768Z,1034.1
2016-12-18T07:57:09.706Z,1034.2
2016-12-18T07:58:13.147Z,1034.1
2016-12-18T07:59:16.086Z,1034.2
2016-12-18T08:01:22.444Z,1034.2
2016-12-18T08:02:25.950Z,1034.2
2016-12-18T08:03:28.883Z,1034.4
2016-12-18T08:04:32.326Z,1034.4
2016-12-18T08:05:35.267Z,1034.4
2016-12-18T08:06:38.707Z,1034.4
2016-12-18T08:07:41.647Z,1034.4
2016-12-18T08:08:45.095Z,1034.4
2016-12-18T08:09:48.038Z,1034.4
2016-12-18T08:10:51.477Z,1034.4
2016-12-18T08:11:54.413Z,1034.2
2016-12-18T08:12:57.853Z,1034.4
2016-12-18T08:14:00.790Z,1034.4
2016-12-18T08:15:03.914Z,1034.5
2016-12-18T08:16:07.355Z,1034.5
2016-12-18T08:17:10.299Z,1034.5
2016-12-18T08:19:16.651Z,1034.5
2016-12-18T08:21:23.510Z,1034.5
2016-12-18T08:22:26.447Z,1034.5
2016-12-18T08:23:29.886Z,1034.5
2016-12-18T08:24:32.827Z,1034.5
2016-12-18T08:25:36.267Z,1034.5
2016-12-18T08:26:39.201Z,1034.5
2016-12-18T08:27:42.649Z,1034.4
2016-12-18T08:28:45.586Z,1034.4
2016-12-18T08:29:49.032Z,1034.5
2016-12-18T08:30:51.974Z,1034.5
2016-12-18T08:31:55.418Z,1034.4
2016-12-18T08:32:58.359Z,1034.4
2016-12-18T08:34:01.801Z,1034.6
2016-12-18T08:35:04.739Z,1034.5
2016-12-18T08:37:11.088Z,1034.5
2016-12-18T08:38:14.535Z,1034.5
2016-12-18T08:39:17.472Z,1034.5
2016-12-18T08:40:20.916Z,1034.4
2016-12-18T08:41:23.862Z,1034.5
2016-12-18T08:42:27.305Z,1034.5
2016-12-18T08:43:30.750Z,1034.5
2016-12-18T08:45:37.101Z,1034.5
2016-12-18T08:46:40.039Z,1034.5
2016-12-18T08:47:43.483Z,1034.6
2016-12-18T08:48:46.424Z,1034.5
2016-12-18T08:49:49.872Z,1034.5
2016-12-18T08:50:52.812Z,1034.5
2016-12-18T08:51:56.257Z,1034.5
2016-12-18T08:52:59.201Z,1034.4
2016-12-18T08:54:02.641Z,1034.5
2016-12-18T08:55:05.577Z,1034.4
2016-12-18T08:56:09.049Z,1034.4
2016-12-18T08:57:11.986Z,1034.4
2016-12-18T08:58:15.425Z,1034.4
2016-12-18T08:59:18.615Z,1034.4
2016-12-18T09:00:21.550Z,1034.4
2016-12-18T09:01:25.002Z,1034.4
2016-12-18T09:02:27.938Z,1034.4
2016-12-18T09:03:31.383Z,1034.2
2016-12-18T09:04:34.323Z,1034.2
2016-12-18T09:05:37.767Z,1034.2
2016-12-18T09:06:41.211Z,1034.2
2016-12-18T09:07:44.153Z,1034.2
2016-12-18T09:08:47.592Z,1034.2
2016-12-18T09:09:50.530Z,1034.2
2016-12-18T09:10:53.969Z,1034.2
2016-12-18T09:11:56.902Z,1034.2
2016-12-18T09:13:00.354Z,1034.2
2016-12-18T09:14:03.294Z,1034.2
2016-12-18T09:15:06.730Z,1034.2
2016-12-18T09:16:09.670Z,1034.4
2016-12-18T09:17:13.111Z,1034.4
2016-12-18T09:18:16.048Z,1034.4
2016-12-18T09:19:19.484Z,1034.4
2016-12-18T09:20:22.417Z,1034.4
2016-12-18T09:21:25.860Z,1034.4
2016-12-18T09:22:29.300Z,1034.4
2016-12-18T09:23:32.237Z,1034.4
2016-12-18T09:24:35.682Z,1034.4
2016-12-18T09:25:38.618Z,1034.4
2016-12-18T09:26:41.937Z,1034.4
2016-12-18T09:27:44.878Z,1034.4
2016-12-18T09:28:48.357Z,1034.4
2016-12-18T09:30:54.703Z,1034.2
2016-12-18T09:31:58.143Z,1034.2
2016-12-18T09:33:01.084Z,1034.2
2016-12-18T09:34:04.164Z,1034.2
2016-12-18T09:35:07.605Z,1034.1
2016-12-18T09:36:10.542Z,1034.2
2016-12-18T09:37:13.985Z,1034.1
2016-12-18T09:38:17.426Z,1034.2
2016-12-18T09:39:20.362Z,1034.1
2016-12-18T09:40:23.808Z,1034.2
2016-12-18T09:41:26.743Z,1034.1
2016-12-18T09:42:29.870Z,1034.1
2016-12-18T09:43:33.315Z,1034.1
2016-12-18T09:44:36.255Z,1034.1
2016-12-18T09:45:39.696Z,1034.1
2016-12-18T09:47:46.047Z,1034.1
2016-12-18T09:48:49.494Z,1034
2016-12-18T09:49:52.439Z,1034
2016-12-18T09:50:55.883Z,1034
2016-12-18T09:51:58.817Z,1034
2016-12-18T09:53:02.262Z,1034
2016-12-18T09:54:05.207Z,1034
2016-12-18T09:55:08.650Z,1033.9
2016-12-18T09:56:11.592Z,1033.9
2016-12-18T09:57:15.037Z,1033.9
2016-12-18T09:58:17.977Z,1033.9
2016-12-18T09:59:21.429Z,1033.9
2016-12-18T10:00:24.872Z,1033.9
2016-12-18T10:01:27.814Z,1033.9
2016-12-18T10:02:31.256Z,1033.9
2016-12-18T10:03:34.198Z,1033.9
2016-12-18T10:04:37.643Z,1033.8
2016-12-18T10:05:40.580Z,1033.8
2016-12-18T10:06:44.020Z,1033.8
2016-12-18T10:07:46.965Z,1033.7
2016-12-18T10:08:50.407Z,1033.7
2016-12-18T10:09:53.348Z,1033.7
2016-12-18T10:10:56.788Z,1033.7
2016-12-18T10:11:59.725Z,1033.7
2016-12-18T10:13:03.160Z,1033.7
2016-12-18T10:14:06.604Z,1033.7
2016-12-18T10:15:09.542Z,1033.7
2016-12-18T10:16:12.981Z,1033.7
2016-12-18T10:17:15.918Z,1033.7
2016-12-18T10:18:19.366Z,1033.6
2016-12-18T10:19:22.303Z,1033.6
2016-12-18T10:20:25.743Z,1033.6
2016-12-18T10:21:28.681Z,1033.5
2016-12-18T10:22:32.253Z,1033.5
2016-12-18T10:23:35.197Z,1033.5
2016-12-18T10:24:38.637Z,1033.5
2016-12-18T10:25:41.577Z,1033.5
2016-12-18T10:26:45.022Z,1033.5
2016-12-18T10:27:47.959Z,1033.5
2016-12-18T10:28:51.407Z,1033.5
2016-12-18T10:29:54.850Z,1033.5
2016-12-18T10:30:57.791Z,1033.4
2016-12-18T10:32:01.231Z,1033.4
2016-12-18T10:33:04.304Z,1033.4
2016-12-18T10:34:07.242Z,1033.4
2016-12-18T10:35:10.686Z,1033.4
2016-12-18T10:36:14.125Z,1033.4
2016-12-18T10:37:17.063Z,1033.4
2016-12-18T10:38:20.506Z,1033.4
2016-12-18T10:39:23.443Z,1033.4
2016-12-18T10:40:26.883Z,1033.4
2016-12-18T10:41:29.824Z,1033.4
2016-12-18T10:42:33.268Z,1033.4
2016-12-18T10:43:36.208Z,1033.3
2016-12-18T10:45:43.061Z,1033.3
2016-12-18T10:46:46.006Z,1033.3
2016-12-18T10:47:49.481Z,1033.3
2016-12-18T10:48:52.426Z,1033.3
2016-12-18T10:49:55.867Z,1033.3
2016-12-18T10:50:58.803Z,1033.3
2016-12-18T10:52:02.248Z,1033.2
2016-12-18T10:53:05.687Z,1033.2
2016-12-18T10:54:08.626Z,1033.2
2016-12-18T10:55:12.067Z,1033.2
2016-12-18T10:56:15.007Z,1033.2
2016-12-18T10:57:18.448Z,1033.2
2016-12-18T10:58:21.385Z,1033.2
2016-12-18T10:59:24.825Z,1033.2
2016-12-18T11:00:27.761Z,1033.2
2016-12-18T11:01:31.202Z,1033.2
2016-12-18T11:02:34.643Z,1033.2
2016-12-18T11:03:37.582Z,1033.1
2016-12-18T11:04:41.021Z,1033.1
2016-12-18T11:05:43.959Z,1033.1
2016-12-18T11:06:47.406Z,1033.1
2016-12-18T11:07:50.347Z,1033.1
2016-12-18T11:08:53.795Z,1033
2016-12-18T11:09:57.235Z,1033
2016-12-18T11:11:00.174Z,1033
2016-12-18T11:12:03.618Z,1033
2016-12-18T11:13:06.556Z,1032.9
2016-12-18T11:14:09.995Z,1032.9
2016-12-18T11:15:12.935Z,1032.9
2016-12-18T11:16:16.379Z,1032.9
2016-12-18T11:17:19.815Z,1032.9
2016-12-18T11:18:22.747Z,1032.9
2016-12-18T11:19:26.213Z,1032.9
2016-12-18T11:20:29.148Z,1032.9
2016-12-18T11:21:32.585Z,1032.9
2016-12-18T11:22:35.524Z,1032.9
2016-12-18T11:23:38.966Z,1032.9
2016-12-18T11:24:41.901Z,1032.8
2016-12-18T11:25:45.345Z,1032.8
2016-12-18T11:26:48.786Z,1032.8
2016-12-18T11:27:51.718Z,1032.7
2016-12-18T11:28:55.162Z,1032.7
2016-12-18T11:29:58.103Z,1032.7
2016-12-18T11:31:01.543Z,1032.7
2016-12-18T11:32:04.479Z,1032.7
2016-12-18T11:33:07.919Z,1032.7
2016-12-18T11:34:10.961Z,1032.7
2016-12-18T11:35:14.401Z,1032.7
2016-12-18T11:36:17.841Z,1032.7
2016-12-18T11:37:20.777Z,1032.6
2016-12-18T11:38:24.215Z,1032.7
2016-12-18T11:39:27.149Z,1032.7
2016-12-18T11:40:30.595Z,1032.6
2016-12-18T11:41:33.536Z,1032.6
2016-12-18T11:42:36.980Z,1032.6
2016-12-18T11:43:40.425Z,1032.6
2016-12-18T11:45:46.811Z,1032.5
2016-12-18T11:46:49.749Z,1032.5
2016-12-18T11:47:53.192Z,1032.5
2016-12-18T11:48:56.126Z,1032.5
2016-12-18T11:49:59.584Z,1032.5
2016-12-18T11:52:05.934Z,1032.5
2016-12-18T11:53:09.377Z,1032.5
2016-12-18T11:54:12.317Z,1032.5
2016-12-18T11:55:15.755Z,1032.5
2016-12-18T11:57:22.103Z,1032.5
2016-12-18T11:58:25.181Z,1032.5
2016-12-18T11:59:28.631Z,1032.5
2016-12-18T12:00:31.569Z,1032.6
2016-12-18T12:01:35.009Z,1032.5
2016-12-18T12:02:38.449Z,1032.5
2016-12-18T12:04:44.806Z,1032.5
2016-12-18T12:05:47.743Z,1032.5
2016-12-18T12:06:51.187Z,1032.5
2016-12-18T12:07:54.634Z,1032.4
2016-12-18T12:08:57.571Z,1032.4
2016-12-18T12:10:01.027Z,1032.4
2016-12-18T12:11:03.969Z,1032.4
2016-12-18T12:13:10.317Z,1032.4
2016-12-18T12:14:13.765Z,1032.3
2016-12-18T12:15:17.210Z,1032.4
2016-12-18T12:16:20.146Z,1032.4
2016-12-18T12:17:23.585Z,1032.4
2016-12-18T12:18:26.522Z,1032.4
2016-12-18T12:19:29.968Z,1032.3
2016-12-18T12:20:32.907Z,1032.3
2016-12-18T12:21:36.348Z,1032.4
2016-12-18T12:22:39.796Z,1032.3
2016-12-18T12:23:42.731Z,1032.3
2016-12-18T12:24:46.172Z,1032.3
2016-12-18T12:25:49.173Z,1032.3
2016-12-18T12:26:52.622Z,1032.2
2016-12-18T12:27:55.595Z,1032.3
2016-12-18T12:28:59.037Z,1032.2
2016-12-18T12:30:01.986Z,1032.2
2016-12-18T12:31:05.431Z,1032.2
2016-12-18T12:32:08.367Z,1032.3
2016-12-18T12:33:11.810Z,1032.2
2016-12-18T12:34:15.254Z,1032.2
2016-12-18T12:35:18.190Z,1032.1
2016-12-18T12:36:21.631Z,1032.1
2016-12-18T12:37:24.572Z,1032.2
2016-12-18T12:38:28.016Z,1032.1
2016-12-18T12:39:31.455Z,1032.1
2016-12-18T12:40:34.393Z,1032.1
2016-12-18T12:41:37.839Z,1032.1
2016-12-18T12:42:40.781Z,1032.1
2016-12-18T12:43:44.224Z,1032.1
2016-12-18T12:44:47.163Z,1032.1
2016-12-18T12:45:50.609Z,1032.1
2016-12-18T12:46:54.053Z,1032.1
2016-12-18T12:47:56.996Z,1032.1
2016-12-18T12:49:00.437Z,1032.1
2016-12-18T12:50:03.375Z,1032.1
2016-12-18T12:51:06.814Z,1032.1
2016-12-18T12:52:09.751Z,1032.1
2016-12-18T12:53:13.192Z,1032.1
2016-12-18T12:54:16.638Z,1032
2016-12-18T12:55:19.575Z,1032
2016-12-18T12:56:23.013Z,1032.1
2016-12-18T12:57:25.953Z,1032.1
2016-12-18T12:58:29.398Z,1032.1
2016-12-18T12:59:32.338Z,1032.1
2016-12-18T13:00:35.778Z,1032.1
2016-12-18T13:01:39.226Z,1032.1
2016-12-18T13:02:42.161Z,1032.1
2016-12-18T13:03:45.601Z,1032.1
2016-12-18T13:04:48.534Z,1032.1
2016-12-18T13:05:51.975Z,1032.1
2016-12-18T13:06:55.415Z,1032.1
2016-12-18T13:07:58.352Z,1032.1
2016-12-18T13:09:01.791Z,1032
2016-12-18T13:10:04.728Z,1032.1
2016-12-18T13:11:08.180Z,1032.1
2016-12-18T13:12:11.121Z,1032
2016-12-18T13:13:14.567Z,1032.1
2016-12-18T13:14:18.013Z,1032
2016-12-18T13:15:20.945Z,1032
2016-12-18T13:16:24.390Z,1032
2016-12-18T13:18:30.744Z,1032
2016-12-18T13:19:34.185Z,1032
2016-12-18T13:20:37.120Z,1032.1
2016-12-18T13:21:40.556Z,1032
2016-12-18T13:22:43.502Z,1032
2016-12-18T13:23:46.948Z,1032
2016-12-18T13:24:49.881Z,1032
2016-12-18T13:25:53.320Z,1032
2016-12-18T13:26:56.756Z,1032
2016-12-18T13:27:59.694Z,1032
2016-12-18T13:29:03.134Z,1032.1
2016-12-18T13:30:06.074Z,1032.1
2016-12-18T13:31:09.522Z,1032.1
2016-12-18T13:32:12.962Z,1032.1
2016-12-18T13:33:15.907Z,1032
2016-12-18T13:34:19.351Z,1032
2016-12-18T13:35:22.291Z,1032
2016-12-18T13:36:25.736Z,1032.1
2016-12-18T13:37:28.672Z,1032.1
2016-12-18T13:38:32.112Z,1032.1
2016-12-18T13:40:38.460Z,1032.1